NCAR-RAP Real-Time Weather Data

Output produced by METARs form (06 May 2021  16:44 UTC)
found at http://weather.rap.ucar.edu/surface/
 
KRBG 061553Z AUTO 00000KT 10SM CLR 14/07 A2999 RMK AO2 SLP155 T01440072
KRBG 061453Z AUTO 12003KT 10SM CLR 12/07 A2997 RMK AO2 SLP149 T01170072 53012
KRBG 061353Z AUTO 00000KT 10SM CLR 10/06 A2995 RMK AO2 SLP140 T01000061
KRBG 061253Z AUTO 00000KT 10SM CLR 10/06 A2994 RMK AO2 SLP139 T01000056
KRBG 061153Z AUTO 00000KT 10SM CLR 11/06 A2994 RMK AO2 SLP136 T01060061 10178 20106 53009
KRBG 061053Z AUTO 00000KT 10SM FEW100 12/06 A2993 RMK AO2 SLP132 T01170061
KRBG 060953Z AUTO 00000KT 10SM SCT110 12/06 A2992 RMK AO2 SLP128 T01220056
KRBG 060853Z AUTO 00000KT 10SM FEW110 14/06 A2991 RMK AO2 SLP127 T01390056 50004
KRBG 060753Z AUTO 00000KT 10SM CLR 14/06 A2992 RMK AO2 SLP129 T01440056 403060078
KRBG 060653Z AUTO 00000KT 10SM CLR 16/06 A2990 RMK AO2 SLP125 T01610056
KRBG 060553Z AUTO 00000KT 10SM CLR 18/05 A2990 RMK AO2 SLP124 T01780050 10306 20178 51023
KRBG 060453Z AUTO 33004KT 10SM CLR 20/04 A2989 RMK AO2 SLP119 T02000044
KRBG 060353Z AUTO 34007KT 10SM CLR 22/04 A2986 RMK AO2 SLP111 T02220039